createdAt,value
2023-01-22T00:00:18.574Z,14.33
2023-01-22T00:02:47.519Z,14.43
2023-01-22T00:05:15.363Z,13.87
2023-01-22T00:07:44.567Z,14.07
2023-01-22T00:10:12.964Z,13.20
2023-01-22T00:12:40.903Z,13.27
2023-01-22T00:15:09.239Z,11.80
2023-01-22T00:17:38.011Z,10.70
2023-01-22T00:20:06.521Z,13.53
2023-01-22T00:22:34.295Z,12.43
2023-01-22T00:25:05.518Z,11.57
2023-01-22T00:27:34.612Z,8.97
2023-01-22T00:30:02.590Z,13.07
2023-01-22T00:32:30.745Z,14.63
2023-01-22T00:34:58.512Z,13.00
2023-01-22T00:37:26.681Z,11.73
2023-01-22T00:39:54.695Z,12.20
2023-01-22T00:42:24.003Z,13.30
2023-01-22T00:44:52.267Z,12.20
2023-01-22T00:47:20.098Z,13.00
2023-01-22T00:49:48.283Z,12.07
2023-01-22T00:52:15.963Z,10.93
2023-01-22T00:54:44.144Z,13.13
2023-01-22T00:57:11.914Z,9.43
2023-01-22T00:59:41.007Z,18.20
2023-01-22T01:02:09.138Z,12.03
2023-01-22T01:04:38.797Z,9.33
2023-01-22T01:07:06.935Z,8.27
2023-01-22T01:09:34.705Z,9.60
2023-01-22T01:12:03.037Z,10.23
2023-01-22T01:14:32.228Z,9.83
2023-01-22T01:17:01.476Z,8.37
2023-01-22T01:19:29.836Z,9.80
2023-01-22T01:21:57.788Z,17.00
2023-01-22T01:24:25.725Z,17.10
2023-01-22T01:26:53.778Z,18.30
2023-01-22T01:29:21.493Z,18.33
2023-01-22T01:31:53.456Z,18.23
2023-01-22T01:34:23.162Z,18.23
2023-01-22T01:36:50.866Z,18.03
2023-01-22T01:39:18.810Z,16.87
2023-01-22T01:41:46.762Z,16.13
2023-01-22T01:44:16.451Z,14.10
2023-01-22T01:46:48.188Z,9.87
2023-01-22T01:49:27.802Z,9.63
2023-01-22T01:51:57.013Z,8.20
2023-01-22T01:54:25.100Z,7.50
2023-01-22T01:56:55.609Z,11.03
2023-01-22T01:59:23.882Z,13.20
2023-01-22T02:01:54.220Z,13.67
2023-01-22T02:04:22.820Z,13.13
2023-01-22T02:06:52.262Z,13.53
2023-01-22T02:09:20.579Z,13.60
2023-01-22T02:11:48.518Z,15.67
2023-01-22T02:14:18.892Z,16.90
2023-01-22T02:16:46.784Z,20.03
2023-01-22T02:19:14.589Z,22.53
2023-01-22T02:21:44.574Z,24.97
2023-01-22T02:24:13.676Z,21.37
2023-01-22T02:26:42.202Z,20.83
2023-01-22T02:29:10.532Z,20.53
2023-01-22T02:31:39.159Z,24.10
2023-01-22T02:34:07.774Z,26.00
2023-01-22T02:36:37.425Z,25.33
2023-01-22T02:39:07.153Z,24.47
2023-01-22T02:41:36.431Z,22.87
2023-01-22T02:44:07.514Z,21.60
2023-01-22T02:46:35.781Z,20.53
2023-01-22T02:49:04.449Z,21.30
2023-01-22T02:51:32.421Z,20.03
2023-01-22T02:54:00.603Z,20.77
2023-01-22T02:56:29.792Z,18.40
2023-01-22T02:58:57.603Z,14.13
2023-01-22T03:01:26.227Z,15.30
2023-01-22T03:03:55.153Z,15.10
2023-01-22T03:06:24.049Z,11.57
2023-01-22T03:08:53.526Z,10.60
2023-01-22T03:11:21.394Z,8.03
2023-01-22T03:14:08.414Z,6.80
2023-01-22T03:16:53.568Z,7.60
2023-01-22T03:19:40.433Z,6.47
2023-01-22T03:22:08.170Z,6.13
2023-01-22T03:24:36.396Z,5.83
2023-01-22T03:27:05.643Z,6.10
2023-01-22T03:29:38.588Z,4.47
2023-01-22T03:32:07.877Z,5.50
2023-01-22T03:34:35.728Z,4.37
2023-01-22T03:37:03.951Z,4.37
2023-01-22T03:39:33.402Z,4.57
2023-01-22T03:42:01.332Z,4.40
2023-01-22T03:44:29.587Z,3.93
2023-01-22T03:46:59.115Z,4.97
2023-01-22T03:49:27.047Z,4.97
2023-01-22T03:51:55.509Z,4.50
2023-01-22T03:54:23.428Z,5.73
2023-01-22T03:56:51.619Z,5.30
2023-01-22T03:59:20.429Z,5.30
2023-01-22T04:01:48.172Z,4.67
2023-01-22T04:04:17.553Z,4.70
2023-01-22T04:06:45.630Z,5.10
2023-01-22T04:09:13.645Z,4.80
2023-01-22T04:11:41.375Z,5.37
2023-01-22T04:14:09.281Z,5.00
2023-01-22T04:16:37.738Z,5.10
2023-01-22T04:19:05.548Z,5.17
2023-01-22T04:21:35.052Z,4.57
2023-01-22T04:24:02.824Z,5.10
2023-01-22T04:26:30.536Z,4.87
2023-01-22T04:28:58.392Z,5.03
2023-01-22T04:31:28.689Z,5.73
2023-01-22T04:33:56.694Z,5.40
2023-01-22T04:36:24.459Z,4.73
2023-01-22T04:38:53.777Z,5.73
2023-01-22T04:41:21.554Z,6.40
2023-01-22T04:43:50.460Z,6.53
2023-01-22T04:46:18.748Z,8.30
2023-01-22T04:48:47.467Z,7.33
2023-01-22T04:51:15.192Z,7.17
2023-01-22T04:53:43.118Z,6.33
2023-01-22T04:56:12.689Z,6.03
2023-01-22T04:58:42.778Z,5.93
2023-01-22T05:01:10.651Z,5.20
2023-01-22T05:03:38.570Z,5.37
2023-01-22T05:06:06.777Z,5.03
2023-01-22T05:08:34.739Z,5.53
2023-01-22T05:11:02.432Z,6.17
2023-01-22T05:13:31.975Z,4.00
2023-01-22T05:15:59.998Z,4.33
2023-01-22T05:18:28.063Z,4.20
2023-01-22T05:20:56.306Z,3.93
2023-01-22T05:23:24.442Z,3.80
2023-01-22T05:25:52.222Z,3.97
2023-01-22T05:28:20.030Z,3.87
2023-01-22T05:30:50.314Z,3.77
2023-01-22T05:33:19.080Z,3.50
2023-01-22T05:35:46.940Z,4.37
2023-01-22T05:38:15.109Z,5.67
2023-01-22T05:40:42.798Z,6.57
2023-01-22T05:43:10.875Z,4.60
2023-01-22T05:45:38.635Z,5.47
2023-01-22T05:48:07.826Z,8.70
2023-01-22T05:50:36.722Z,12.60
2023-01-22T05:53:05.415Z,15.10
2023-01-22T05:55:33.504Z,19.87
2023-01-22T05:58:01.619Z,26.27
2023-01-22T06:00:29.698Z,15.53
2023-01-22T06:02:58.009Z,10.47
2023-01-22T06:05:27.259Z,8.90
2023-01-22T06:07:56.073Z,9.83
2023-01-22T06:10:23.742Z,10.70
2023-01-22T06:12:51.406Z,9.73
2023-01-22T06:15:21.468Z,10.80
2023-01-22T06:17:49.254Z,10.40
2023-01-22T06:20:17.565Z,10.30
2023-01-22T06:22:47.055Z,11.70
2023-01-22T06:25:14.807Z,9.77
2023-01-22T06:27:42.776Z,14.13
2023-01-22T06:30:12.827Z,9.93
2023-01-22T06:32:40.842Z,11.07
2023-01-22T06:35:09.177Z,11.07
2023-01-22T06:37:39.690Z,9.80
2023-01-22T06:40:10.049Z,12.50
2023-01-22T06:42:38.201Z,10.60
2023-01-22T06:45:07.521Z,14.67
2023-01-22T06:47:36.373Z,13.07
2023-01-22T06:50:04.665Z,12.37
2023-01-22T06:52:32.833Z,13.30
2023-01-22T06:55:00.534Z,16.23
2023-01-22T06:57:29.846Z,16.90
2023-01-22T06:59:57.677Z,6.17
2023-01-22T07:02:25.884Z,5.90
2023-01-22T07:04:54.138Z,6.73
2023-01-22T07:07:22.347Z,6.77
2023-01-22T07:09:50.378Z,10.30
2023-01-22T07:12:18.500Z,9.00
2023-01-22T07:14:47.891Z,9.80
2023-01-22T07:17:15.685Z,6.37
2023-01-22T07:19:43.419Z,6.07
2023-01-22T07:22:11.086Z,8.63
2023-01-22T07:24:39.162Z,10.10
2023-01-22T07:27:06.991Z,8.13
2023-01-22T07:29:34.725Z,11.63
2023-01-22T07:32:03.968Z,10.40
2023-01-22T07:34:32.247Z,10.77
2023-01-22T07:37:02.012Z,9.30
2023-01-22T07:39:30.275Z,9.63
2023-01-22T07:42:01.607Z,8.83
2023-01-22T07:44:29.991Z,8.97
2023-01-22T07:46:58.001Z,9.17
2023-01-22T07:49:28.085Z,9.10
2023-01-22T07:51:55.785Z,10.07
2023-01-22T07:54:23.758Z,11.83
2023-01-22T07:56:51.584Z,13.93
2023-01-22T07:59:19.518Z,26.53
2023-01-22T08:01:47.579Z,25.30
2023-01-22T08:04:15.308Z,24.53
2023-01-22T08:06:44.710Z,22.00
2023-01-22T08:09:12.448Z,23.03
2023-01-22T08:11:40.478Z,24.67
2023-01-22T08:14:08.129Z,22.93
2023-01-22T08:16:37.139Z,19.83
2023-01-22T08:19:06.429Z,19.30
2023-01-22T08:21:34.142Z,19.97
2023-01-22T08:24:05.139Z,18.93
2023-01-22T08:26:33.018Z,17.53
2023-01-22T08:29:04.834Z,19.40
2023-01-22T08:31:36.843Z,17.73
2023-01-22T08:34:04.671Z,18.73
2023-01-22T08:36:32.406Z,23.70
2023-01-22T08:39:00.514Z,18.43
2023-01-22T08:41:30.011Z,15.73
2023-01-22T08:43:57.988Z,18.77
2023-01-22T08:46:26.148Z,17.20
2023-01-22T08:48:54.077Z,19.00
2023-01-22T08:51:25.744Z,27.63
2023-01-22T08:53:53.586Z,22.90
2023-01-22T08:56:21.355Z,19.63
2023-01-22T08:58:51.520Z,18.80
2023-01-22T09:01:20.189Z,19.33
2023-01-22T09:03:48.862Z,18.90
2023-01-22T09:06:16.702Z,22.10
2023-01-22T09:08:44.655Z,22.83
2023-01-22T09:11:12.899Z,24.80
2023-01-22T09:13:40.667Z,22.83
2023-01-22T09:16:11.939Z,21.83
2023-01-22T09:18:40.622Z,20.67
2023-01-22T09:21:08.494Z,18.67
2023-01-22T09:23:36.488Z,18.80
2023-01-22T09:26:04.464Z,18.87
2023-01-22T09:28:34.110Z,18.00
2023-01-22T09:31:03.565Z,18.73
2023-01-22T09:33:33.062Z,18.50
2023-01-22T09:36:07.817Z,19.07
2023-01-22T09:38:35.713Z,16.63
2023-01-22T09:41:05.108Z,22.13
2023-01-22T09:43:34.017Z,24.17
2023-01-22T09:46:03.432Z,23.50
2023-01-22T09:48:35.984Z,20.00
2023-01-22T09:51:04.109Z,23.67
2023-01-22T09:53:32.491Z,21.07
2023-01-22T09:56:01.358Z,22.33
2023-01-22T09:58:29.249Z,17.17
2023-01-22T10:01:00.505Z,20.80
2023-01-22T10:03:31.440Z,10.33
2023-01-22T10:06:02.254Z,13.63
2023-01-22T10:08:33.472Z,19.07
2023-01-22T10:11:02.297Z,13.53
2023-01-22T10:13:32.436Z,14.13
2023-01-22T10:16:00.383Z,18.07
2023-01-22T10:18:34.787Z,20.00
2023-01-22T10:21:05.468Z,18.43
2023-01-22T10:23:36.902Z,19.80
2023-01-22T10:26:08.872Z,17.27
2023-01-22T10:28:36.702Z,15.67
2023-01-22T10:31:04.514Z,15.93
2023-01-22T10:33:39.053Z,14.23
2023-01-22T10:36:08.820Z,16.33
2023-01-22T10:38:36.482Z,17.40
2023-01-22T10:41:05.204Z,13.90
2023-01-22T10:43:34.602Z,14.47
2023-01-22T10:46:05.225Z,13.43
2023-01-22T10:48:33.351Z,11.00
2023-01-22T10:51:04.123Z,13.47
2023-01-22T10:53:34.618Z,11.50
2023-01-22T10:56:04.041Z,11.30
2023-01-22T10:58:33.296Z,10.90
2023-01-22T11:01:02.498Z,11.37
2023-01-22T11:03:32.472Z,9.63
2023-01-22T11:06:01.490Z,9.77
2023-01-22T11:08:32.115Z,10.50
2023-01-22T11:11:03.387Z,8.50
2023-01-22T11:13:33.007Z,9.40
2023-01-22T11:16:05.578Z,10.80
2023-01-22T11:18:35.841Z,14.47
2023-01-22T11:21:07.277Z,12.47
2023-01-22T11:23:40.264Z,13.77
2023-01-22T11:26:13.752Z,14.00
2023-01-22T11:28:45.672Z,11.03
2023-01-22T11:31:21.885Z,8.10
2023-01-22T11:33:56.602Z,17.90
2023-01-22T11:36:26.988Z,16.70
2023-01-22T11:38:56.361Z,8.10
2023-01-22T11:41:43.379Z,9.83
2023-01-22T11:44:22.258Z,7.20
2023-01-22T11:46:56.956Z,5.37
2023-01-22T11:49:31.080Z,3.87
2023-01-22T11:52:05.005Z,2.90
2023-01-22T11:54:38.474Z,3.80
2023-01-22T11:57:11.197Z,5.40
2023-01-22T11:59:45.888Z,4.50
2023-01-22T12:02:23.847Z,4.37
2023-01-22T12:04:58.434Z,3.33
2023-01-22T12:07:36.533Z,3.80
2023-01-22T12:10:13.040Z,3.53
2023-01-22T12:12:49.582Z,2.70
2023-01-22T12:15:26.436Z,2.57
2023-01-22T12:18:00.000Z,3.23
2023-01-22T12:20:33.666Z,2.50
2023-01-22T12:23:03.666Z,2.77
2023-01-22T12:25:35.816Z,2.80
2023-01-22T12:28:09.596Z,2.27
2023-01-22T12:30:43.735Z,2.80
2023-01-22T12:33:13.694Z,3.10
2023-01-22T12:35:44.931Z,3.10
2023-01-22T12:38:16.383Z,2.30
2023-01-22T12:40:54.061Z,3.00
2023-01-22T12:43:28.763Z,2.40
2023-01-22T12:45:59.628Z,2.30
2023-01-22T12:48:31.536Z,2.43
2023-01-22T12:50:59.841Z,3.17
2023-01-22T12:53:30.080Z,2.40
2023-01-22T12:56:02.888Z,2.10
2023-01-22T12:58:32.863Z,2.60
2023-01-22T13:01:03.533Z,3.10
2023-01-22T13:03:32.925Z,2.50
2023-01-22T13:06:01.879Z,2.07
2023-01-22T13:08:36.799Z,2.10
2023-01-22T13:11:05.984Z,3.33
2023-01-22T13:13:37.745Z,3.77
2023-01-22T13:16:06.389Z,3.47
2023-01-22T13:18:36.098Z,2.60
2023-01-22T13:21:05.611Z,3.03
2023-01-22T13:23:34.947Z,2.33
2023-01-22T13:26:03.686Z,3.73
2023-01-22T13:28:31.466Z,3.50
2023-01-22T13:31:02.441Z,4.53
2023-01-22T13:33:30.552Z,4.43
2023-01-22T13:35:59.493Z,3.40
2023-01-22T13:38:27.933Z,6.27
2023-01-22T13:40:57.440Z,5.07
2023-01-22T13:43:26.016Z,2.90
2023-01-22T13:45:55.526Z,4.17
2023-01-22T13:48:25.464Z,2.80
2023-01-22T13:50:55.195Z,2.23
2023-01-22T13:53:29.328Z,1.93
2023-01-22T13:55:57.382Z,1.90
2023-01-22T13:58:46.717Z,2.77
2023-01-22T14:01:27.013Z,4.00
2023-01-22T14:04:01.302Z,5.90
2023-01-22T14:06:29.319Z,4.83
2023-01-22T14:08:58.379Z,4.20
2023-01-22T14:11:26.274Z,2.90
2023-01-22T14:13:54.632Z,3.90
2023-01-22T14:16:22.546Z,4.20
2023-01-22T14:18:50.582Z,3.17
2023-01-22T14:21:21.892Z,3.43
2023-01-22T14:23:50.233Z,2.40
2023-01-22T14:26:18.198Z,2.53
2023-01-22T14:28:45.815Z,2.37
2023-01-22T14:31:14.151Z,2.80
2023-01-22T14:33:42.142Z,3.07
2023-01-22T14:36:10.759Z,2.97
2023-01-22T14:38:40.699Z,3.17
2023-01-22T14:41:08.661Z,3.00
2023-01-22T14:43:36.856Z,3.10
2023-01-22T14:46:07.733Z,2.70
2023-01-22T14:48:35.583Z,2.80
2023-01-22T14:51:08.878Z,4.00
2023-01-22T14:53:36.906Z,4.10
2023-01-22T14:56:06.310Z,4.67
2023-01-22T14:58:34.361Z,6.60
2023-01-22T15:01:02.480Z,2.80
2023-01-22T15:03:31.221Z,3.17
2023-01-22T15:05:59.355Z,3.00
2023-01-22T15:08:28.522Z,2.77
2023-01-22T15:10:56.323Z,4.13
2023-01-22T15:13:25.968Z,4.47
2023-01-22T15:15:54.056Z,8.97
2023-01-22T15:18:22.042Z,6.80
2023-01-22T15:20:50.348Z,7.93
2023-01-22T15:23:20.714Z,9.90
2023-01-22T15:25:57.023Z,10.77
2023-01-22T15:28:26.470Z,13.07
2023-01-22T15:30:56.900Z,14.60
2023-01-22T15:33:25.063Z,14.47
2023-01-22T15:35:54.781Z,9.60
2023-01-22T15:38:22.851Z,9.10
2023-01-22T15:40:50.847Z,9.27
2023-01-22T15:43:18.790Z,10.67
2023-01-22T15:45:48.805Z,9.60
2023-01-22T15:48:16.859Z,8.37
2023-01-22T15:50:44.617Z,8.00
2023-01-22T15:53:12.529Z,8.13
2023-01-22T15:55:40.294Z,7.07
2023-01-22T15:58:08.503Z,8.63
2023-01-22T16:00:40.307Z,8.83
2023-01-22T16:03:12.053Z,8.20
2023-01-22T16:05:40.334Z,7.30
2023-01-22T16:08:08.029Z,10.70
2023-01-22T16:10:36.032Z,9.57
2023-01-22T16:13:06.622Z,7.63
2023-01-22T16:15:34.397Z,9.07
2023-01-22T16:18:02.451Z,7.07
2023-01-22T16:20:31.870Z,7.07
2023-01-22T16:22:59.841Z,7.43
2023-01-22T16:25:27.962Z,8.07
2023-01-22T16:27:55.830Z,7.20
2023-01-22T16:30:24.051Z,6.67
2023-01-22T16:32:53.574Z,6.93
2023-01-22T16:35:21.282Z,7.27
2023-01-22T16:37:50.475Z,6.37
2023-01-22T16:40:18.760Z,7.23
2023-01-22T16:42:58.767Z,7.23
2023-01-22T16:45:26.774Z,7.30
2023-01-22T16:47:55.836Z,8.57
2023-01-22T16:50:23.816Z,6.70
2023-01-22T16:52:53.589Z,5.70
2023-01-22T16:55:21.447Z,5.87
2023-01-22T16:57:49.391Z,6.20
2023-01-22T17:00:17.816Z,8.10
2023-01-22T17:02:45.929Z,5.87
2023-01-22T17:05:14.553Z,6.03
2023-01-22T17:07:42.715Z,5.67
2023-01-22T17:10:12.896Z,4.93
2023-01-22T17:12:40.844Z,5.37
2023-01-22T17:15:09.332Z,4.83
2023-01-22T17:17:44.430Z,6.00
2023-01-22T17:20:13.379Z,5.43
2023-01-22T17:22:42.942Z,8.10
2023-01-22T17:25:12.819Z,6.27
2023-01-22T17:27:41.223Z,5.47
2023-01-22T17:30:11.001Z,6.50
2023-01-22T17:32:39.048Z,6.23
2023-01-22T17:35:10.113Z,5.63
2023-01-22T17:37:38.231Z,7.23
2023-01-22T17:40:06.684Z,7.77
2023-01-22T17:42:36.001Z,6.40
2023-01-22T17:45:08.672Z,7.03
2023-01-22T17:47:36.492Z,5.90
2023-01-22T17:50:04.879Z,5.93
2023-01-22T17:52:33.812Z,6.27
2023-01-22T17:55:01.962Z,6.70
2023-01-22T17:57:29.832Z,10.13
2023-01-22T17:59:59.120Z,10.33
2023-01-22T18:02:28.291Z,8.20
2023-01-22T18:04:56.682Z,9.17
2023-01-22T18:07:25.536Z,8.40
2023-01-22T18:09:53.515Z,7.50
2023-01-22T18:12:21.858Z,8.57
2023-01-22T18:14:50.630Z,10.83
2023-01-22T18:17:20.326Z,9.50
2023-01-22T18:19:49.158Z,9.30
2023-01-22T18:22:18.903Z,10.10
2023-01-22T18:24:46.845Z,11.67
2023-01-22T18:27:15.440Z,11.37
2023-01-22T18:29:43.589Z,9.00
2023-01-22T18:32:11.615Z,8.60
2023-01-22T18:34:41.255Z,9.10
2023-01-22T18:37:10.681Z,10.17
2023-01-22T18:39:39.781Z,7.83
2023-01-22T18:42:07.945Z,8.93
2023-01-22T18:44:35.847Z,8.27
2023-01-22T18:47:07.588Z,7.87
2023-01-22T18:49:36.182Z,6.63
2023-01-22T18:52:05.540Z,7.07
2023-01-22T18:54:33.736Z,7.90
2023-01-22T18:57:01.696Z,8.47
2023-01-22T18:59:29.645Z,6.10
2023-01-22T19:01:57.905Z,6.63
2023-01-22T19:04:25.726Z,7.40
2023-01-22T19:06:54.499Z,7.50
2023-01-22T19:09:24.086Z,7.80
2023-01-22T19:11:53.267Z,6.40
2023-01-22T19:14:21.999Z,7.33
2023-01-22T19:16:51.494Z,5.43
2023-01-22T19:19:20.022Z,6.47
2023-01-22T19:21:51.680Z,5.47
2023-01-22T19:24:22.437Z,5.70
2023-01-22T19:26:52.630Z,3.73
2023-01-22T19:29:22.993Z,5.57
2023-01-22T19:31:52.290Z,3.93
2023-01-22T19:34:23.989Z,4.93
2023-01-22T19:36:52.649Z,6.10
2023-01-22T19:39:20.465Z,6.73
2023-01-22T19:41:50.242Z,5.80
2023-01-22T19:44:19.978Z,5.83
2023-01-22T19:46:49.564Z,7.33
2023-01-22T19:49:17.585Z,7.30
2023-01-22T19:51:46.164Z,8.27
2023-01-22T19:54:14.264Z,8.37
2023-01-22T19:56:45.551Z,7.03
2023-01-22T19:59:15.135Z,5.00
2023-01-22T20:01:45.686Z,4.43
2023-01-22T20:04:25.447Z,6.27
2023-01-22T20:06:57.020Z,6.73
2023-01-22T20:09:24.855Z,6.77
2023-01-22T20:11:53.882Z,6.53
2023-01-22T20:14:22.090Z,5.37
2023-01-22T20:16:51.730Z,5.87
2023-01-22T20:19:19.987Z,5.13
2023-01-22T20:21:47.759Z,5.13
2023-01-22T20:24:15.896Z,5.27
2023-01-22T20:26:43.883Z,5.80
2023-01-22T20:29:12.788Z,5.87
2023-01-22T20:31:42.190Z,5.00
2023-01-22T20:34:11.356Z,4.67
2023-01-22T20:36:39.017Z,4.53
2023-01-22T20:39:07.308Z,4.57
2023-01-22T20:41:35.580Z,4.80
2023-01-22T20:44:04.020Z,5.27
2023-01-22T20:46:32.656Z,5.03
2023-01-22T20:49:00.532Z,5.70
2023-01-22T20:51:30.117Z,5.33
2023-01-22T20:53:58.908Z,6.57
2023-01-22T20:56:30.326Z,7.07
2023-01-22T20:58:59.153Z,7.90
2023-01-22T21:01:27.812Z,8.47
2023-01-22T21:03:56.419Z,7.03
2023-01-22T21:06:24.684Z,5.17
2023-01-22T21:08:56.300Z,5.37
2023-01-22T21:11:24.757Z,5.57
2023-01-22T21:13:53.153Z,5.13
2023-01-22T21:16:23.167Z,4.33
2023-01-22T21:18:51.189Z,4.03
2023-01-22T21:21:21.005Z,5.33
2023-01-22T21:23:49.282Z,4.43
2023-01-22T21:26:19.404Z,5.27
2023-01-22T21:28:48.114Z,6.10
2023-01-22T21:31:17.486Z,5.70
2023-01-22T21:33:45.720Z,4.20
2023-01-22T21:36:14.636Z,6.53
2023-01-22T21:38:42.487Z,6.13
2023-01-22T21:41:12.622Z,7.50
2023-01-22T21:44:00.398Z,6.30
2023-01-22T21:46:29.890Z,6.93
2023-01-22T21:48:59.053Z,7.80
2023-01-22T21:51:27.298Z,9.37
2023-01-22T21:53:58.149Z,7.17
2023-01-22T21:56:26.824Z,6.83
2023-01-22T21:58:57.128Z,6.37
2023-01-22T22:01:25.404Z,6.03
2023-01-22T22:03:53.522Z,5.00
2023-01-22T22:06:21.300Z,5.23
2023-01-22T22:08:49.085Z,4.90
2023-01-22T22:11:17.408Z,4.70
2023-01-22T22:13:45.071Z,5.57
2023-01-22T22:16:14.688Z,4.80
2023-01-22T22:18:42.731Z,4.80
2023-01-22T22:21:10.970Z,4.07
2023-01-22T22:23:39.170Z,5.63
2023-01-22T22:26:07.503Z,5.00
2023-01-22T22:28:35.795Z,4.10
2023-01-22T22:31:04.746Z,4.37
2023-01-22T22:33:34.605Z,4.57
2023-01-22T22:36:03.214Z,5.17
2023-01-22T22:38:31.748Z,4.80
2023-01-22T22:41:00.567Z,4.97
2023-01-22T22:43:29.740Z,6.30
2023-01-22T22:46:02.197Z,5.63
2023-01-22T22:48:30.235Z,4.90
2023-01-22T22:50:59.824Z,5.97
2023-01-22T22:53:29.040Z,4.53
2023-01-22T22:55:57.063Z,5.43
2023-01-22T22:58:25.047Z,5.57
2023-01-22T23:00:53.816Z,5.97
2023-01-22T23:03:21.871Z,4.80
2023-01-22T23:05:50.002Z,4.30
2023-01-22T23:08:19.732Z,3.77
2023-01-22T23:10:47.458Z,3.90
2023-01-22T23:13:15.452Z,4.70
2023-01-22T23:15:43.221Z,3.67
2023-01-22T23:18:10.951Z,3.50
2023-01-22T23:20:39.106Z,3.97
2023-01-22T23:23:07.053Z,5.53
2023-01-22T23:25:36.689Z,5.17
2023-01-22T23:28:04.530Z,5.53
2023-01-22T23:30:32.482Z,6.43
2023-01-22T23:33:00.992Z,5.30
2023-01-22T23:35:28.792Z,6.37
2023-01-22T23:37:56.723Z,5.27
2023-01-22T23:40:24.815Z,4.73
2023-01-22T23:42:54.105Z,4.97
2023-01-22T23:45:22.445Z,5.40
2023-01-22T23:47:52.188Z,5.93
2023-01-22T23:50:21.780Z,5.30
2023-01-22T23:52:49.578Z,5.53
2023-01-22T23:55:17.698Z,4.70
2023-01-22T23:57:45.655Z,8.20
